首页
METAR-TAF:

METAR-TAF

机场 :

Independence, 堪薩斯州, 美国

纬度: 37-09-30N, 经度: 095-46-42W, 海拔: 251米

当前天气观测

该预报发布于38分钟前的04:15 UTC
风速9节,风向西转西北
温度 10°C
湿度 71%
气压 1010 hPa
能見度: 16.1公里
天空无云

METAR: KIDP 190415Z AUTO 29009KT 10SM CLR 10/05 A2983 RMK AO2 T01030048

时间: 22:53 (04:53 UTC)


TAF: 丢失

超过4000个机场的气象观测和天气预报(METAR&TAF报告)。

可查询的气象台以黄色和红色小点在地图上表示。

将鼠标移到小点上方,可查看气象台名称。

然后点击查看天气观测和预报。

如需切换地图:点击带黑十字的绿色按钮放大地图;点击带横线的绿色按钮缩小地图;或者点击绿色箭头查看邻近地区的地图。


METAR-TAF: